Station: Norah Head  

  Atmospheric Gas Attenuation - ITU Rec 676-11   ----------------- dB/100km -----------------
Date Time Temp RH % AH g/m3 Dew Point Wind Direction Speed kph Gust kph Barometer mB Rainfall Since 9am 24GHz 47GHz 76GHz 122GHz 134GHz 241GHz
08/05 12:30 19.9 43 7.39 7 11 24 1016.5 0 16.8 22.5 32.6 85.4 76.9 263.7
08/05 12:20 19.8 42 7.17 6.8 11 19 1016.7 0 16.3 22.3 31.9 83.4 74.4 255.1
08/05 12:10 19.3 43 7.13 6.4 11 15 1016.9 0 16.2 22.3 32.0 83.6 74.4 255.1
08/05 12:00 19.2 43 7.09 6.3 13 26 1016.9 0 16.1 22.3 31.9 83.3 74.1 253.8
08/05 11:50 19 43 7.01 6.4 9 17 1017.1 0 16.0 22.2 31.7 82.8 73.3 251.2
08/05 11:40 18.8 44 7.09 6.3 17 24 1017.4 0 16.2 22.4 32.0 83.8 74.5 255.2
08/05 11:30 18.4 44 6.92 5.9 13 28 1017.5 0 15.8 22.3 31.6 82.6 72.8 249.4
08/05 11:20 18.3 46 7.19 6.5 6 9 1017.7 0 16.4 22.7 32.6 85.3 76.1 260.9
08/05 11:10 18.1 46 7.11 6.3 9 15 1017.8 0 16.2 22.6 32.4 84.7 75.4 258.3
08/05 11:00 17.8 46 6.98 6 13 28 1017.8 0 16.0 22.5 32.1 83.8 74.1 253.8
08/05 10:50 17.4 45 6.67 5.6 17 22 1018.1 0 15.3 22.2 31.1 81.2 70.8 242.3
08/05 10:40 17.1 46 6.7 5.4 13 20 1018.2 0 15.4 22.3 31.3 81.8 71.5 244.5
08/05 10:30 17.1 49 7.13 6.3 9 24 1018.2 0 16.3 22.9 32.9 86.0 76.6 262.4
08/05 10:20 16.8 49 7.01 6 7 11 1018.3 0 16.1 22.8 32.6 85.2 75.4 258.4
08/05 10:10 16.5 49 6.88 5.7 13 20 1018.3 0 15.8 22.7 32.2 84.2 74.2 253.9
08/05 10:00 16 48 6.54 5 13 22 1018.4 0 15.1 22.3 31.2 81.4 70.6 241.2
08/05 09:50 15.9 49 6.64 5.2 13 22 1018.4 0 15.3 22.5 31.6 82.5 71.8 245.6
08/05 09:40 15.5 50 6.61 5.1 13 19 1018.4 0 15.3 22.6 31.6 82.6 71.9 245.6
08/05 09:30 15.4 51 6.7 5.3 11 26 1018.3 0 15.5 22.7 32.0 83.6 73.0 249.7
08/05 09:20 14.9 51 6.5 4.8 11 17 1018.3 0 15.1 22.5 31.5 82.2 71.1 242.7
08/05 09:10 14.5 51 6.34 4.5 9 17 1018.3 0 14.8 22.4 31.0 81.0 69.5 237.2
08/05 09:00 14.1 51 6.19 4.1 13 28 1018.2 0 14.4 22.3 30.6 79.9 68.0 232.0
08/05 08:50 13.9 52 6.23 4.2 11 15 1018.1 0 14.5 22.4 30.9 80.5 68.7 234.2
08/05 08:40 13.4 52 6.05 3.7 11 30 1018.1 0 14.2 22.2 30.4 79.2 66.9 228.0
08/05 08:30 13.2 54 6.2 4.1 13 28 1018.2 0 14.5 22.5 31.0 80.9 68.9 235.0
08/05 08:20 12.9 54 6.09 3.8 13 20 1018.3 0 14.3 22.4 30.7 80.1 67.8 231.2
08/05 08:10 12.6 55 6.09 3.8 11 20 1018.3 0 14.3 22.5 30.8 80.4 68.1 232.1
08/05 08:00 12.1 56 6.01 3.6 9 26 1018.3 0 14.1 22.5 30.7 80.2 67.5 230.0
08/05 07:50 11.6 56 5.82 3.1 11 19 1018.3 0 13.8 22.3 30.2 78.8 65.6 223.3
08/05 07:40 11.3 56 5.71 2.8 7 9 1018.3 0 13.5 22.2 29.9 78.0 64.5 219.4
08/05 07:30 11.1 57 5.74 2.9 9 24 1018.2 0 13.6 22.3 30.1 78.4 65.1 221.2
08/05 07:20 10.8 59 5.83 3.1 9 15 1018.1 0 13.8 22.5 30.5 79.6 66.4 225.9
08/05 07:10 10.5 58 5.63 2.6 7 17 1018 0 13.4 22.3 29.9 77.9 64.2 218.0
08/05 07:00 10.3 60 5.75 2.9 7 15 1017.9 0 13.7 22.5 30.4 79.3 65.8 223.8
08/05 06:50 10 61 5.73 2.8 7 11 1017.9 0 13.6 22.6 30.5 79.4 65.8 223.7
08/05 06:40 9.8 61 5.66 2.8 6 11 1017.9 0 13.5 22.5 30.3 78.9 65.1 221.2
08/05 06:30 9.7 62 5.72 2.8 7 13 1018.1 0 13.6 22.6 30.5 79.6 66.0 224.2
08/05 06:20 9.8 61 5.66 2.8 9 15 1018.1 0 13.5 22.5 30.3 78.9 65.1 221.3
08/05 06:10 9.8 60 5.57 2.4 7 13 1018 0 13.3 22.4 29.9 78.0 64.0 217.3
08/05 06:00 9.9 58 5.42 2 9 24 1018 0 13.0 22.1 29.3 76.4 62.1 210.5
08/05 05:50 9.8 58 5.38 2.1 13 22 1018 0 12.9 22.1 29.2 76.1 61.7 209.1
08/05 05:40 9.7 60 5.53 2.3 11 19 1018 0 13.2 22.3 29.8 77.7 63.6 215.9
08/05 05:30 9.7 60 5.53 2.3 7 24 1018.1 0 13.2 22.3 29.8 77.7 63.6 215.9
08/05 05:20 9.7 60 5.53 2.3 7 15 1017.9 0 13.2 22.3 29.8 77.7 63.6 215.8
08/05 05:10 9.6 59 5.41 2 7 11 1017.8 0 13.0 22.2 29.4 76.6 62.2 210.9
08/05 05:00 9.6 59 5.41 2 7 17 1017.8 0 13.0 22.2 29.4 76.6 62.2 210.9
08/05 04:50 9.6 58 5.31 1.7 7 11 1017.8 0 12.7 22.0 29.0 75.6 60.9 206.5
08/05 04:40 9.5 59 5.37 1.9 9 17 1017.8 0 12.9 22.1 29.3 76.3 61.8 209.4
08/05 04:30 9.5 59 5.37 1.9 9 19 1017.9 0 12.9 22.1 29.3 76.3 61.8 209.4
08/05 04:20 9.4 59 5.34 1.8 6 7 1017.9 0 12.8 22.1 29.2 76.1 61.5 208.4
08/05 04:10 9.2 60 5.36 1.8 6 9 1018 0 12.9 22.2 29.4 76.5 61.9 209.8
08/05 04:00 9.3 58 5.21 1.5 9 17 1018.1 0 12.5 22.0 28.8 74.9 59.9 203.0
08/05 03:50 9.4 57 5.16 1.3 9 15 1018 0 12.4 21.9 28.6 74.3 59.3 200.6
08/05 03:40 9.4 57 5.16 1.3 7 11 1018.1 0 12.4 21.9 28.6 74.3 59.3 200.6
08/05 03:30 9.3 57 5.12 1.2 9 17 1018.1 0 12.3 21.8 28.4 74.0 58.8 199.1
08/05 03:20 9.3 57 5.12 1.2 9 13 1018.2 0 12.3 21.8 28.4 74.0 58.8 199.1
08/05 03:10 9.3 57 5.12 1.2 11 17 1018.3 0 12.3 21.8 28.5 74.0 58.9 199.2
08/05 03:00 9.4 57 5.16 1.3 7 20 1018.3 0 12.4 21.9 28.6 74.3 59.3 200.6
08/05 02:50 9.3 57 5.12 1.2 9 17 1018.5 0 12.3 21.8 28.5 74.0 58.9 199.2
08/05 02:40 9.4 56 5.07 1 6 7 1018.6 0 12.2 21.7 28.2 73.4 58.2 196.8
08/05 02:30 9.5 55 5.01 0.9 7 15 1018.7 0 12.1 21.6 28.0 72.8 57.4 194.0
08/05 02:20 9.5 55 5.01 0.9 9 13 1018.9 0 12.1 21.6 28.0 72.8 57.4 194.0
08/05 02:10 9.5 55 5.01 0.9 6 7 1018.9 0 12.1 21.6 28.0 72.8 57.4 194.0
08/05 02:00 9.6 56 5.13 1.3 6 13 1018.9 0 12.4 21.8 28.4 73.9 58.8 199.0
08/05 01:50 9.8 56 5.2 1.4 9 15 1018.9 0 12.5 21.9 28.6 74.4 59.5 201.5
08/05 01:40 9.9 53 4.95 0.7 13 19 1019.1 0 12.0 21.5 27.6 71.8 56.4 190.6
08/05 01:30 9.9 53 4.95 0.8 9 20 1019.1 0 12.0 21.5 27.6 71.8 56.4 190.6
08/05 01:20 10.1 53 5.01 0.9 11 17 1019.1 0 12.1 21.5 27.8 72.3 57.0 192.6
08/05 01:10 10.2 53 5.04 1 11 15 1019.1 0 12.1 21.5 27.9 72.5 57.3 193.7
08/05 01:00 10.2 53 5.04 1.1 7 22 1019.1 0 12.1 21.5 27.9 72.5 57.3 193.7
08/05 00:50 10.1 53 5.01 0.9 9 15 1019.1 0 12.1 21.5 27.8 72.3 57.0 192.6
08/05 00:40 10.1 52 4.92 0.7 6 9 1019.2 0 11.9 21.4 27.5 71.4 55.9 188.8
08/05 00:20 10.3 51 4.89 0.6 7 13 1019.3 0 11.8 21.3 27.3 70.9 55.4 187.1
08/05 00:10 10.3 51 4.89 0.6 13 17 1019.4 0 11.8 21.3 27.3 70.9 55.4 187.1
08/05 00:00 10.3 50 4.79 0.3 11 24 1019.3 0 11.6 21.1 26.9 70.0 54.2 182.9
07/05 23:50 10.4 50 4.82 0.4 11 15 1019.3 0 11.7 21.2 27.0 70.2 54.5 184.0
07/05 23:40 10.5 50 4.85 0.5 9 15 1019.3 0 11.7 21.2 27.1 70.4 54.8 185.0
07/05 23:30 10.5 50 4.85 0.5 11 24 1019.2 0 11.7 21.2 27.1 70.4 54.8 185.0
07/05 23:20 10.6 49 4.78 0.3 13 19 1019.2 0 11.6 21.1 26.8 69.6 53.9 181.8
07/05 23:10 10.6 49 4.78 0.3 13 20 1019.2 0 11.6 21.1 26.8 69.6 53.9 181.8
07/05 23:00 10.8 49 4.84 0.5 11 24 1019.1 0 11.7 21.1 27.0 70.0 54.4 183.8
07/05 22:50 10.8 48 4.75 0.2 15 26 1019.2 0 11.5 21.0 26.6 69.1 53.4 180.1
07/05 22:40 10.9 47 4.68 0 9 17 1019.1 0 11.4 20.8 26.3 68.4 52.5 177.0
07/05 22:30 11 47 4.71 0.1 9 24 1019 0 11.4 20.9 26.4 68.6 52.8 178.0
07/05 22:20 11.1 47 4.74 0.2 7 9 1019.1 0 11.5 20.9 26.5 68.8 53.1 179.0
07/05 22:10 11.3 45 4.59 -0.2 19 30 1019.2 0 11.2 20.6 25.9 67.2 51.2 172.4
07/05 22:00 11.4 46 4.72 0.2 13 28 1019.4 0 11.4 20.8 26.3 68.4 52.6 177.6
07/05 21:50 11.5 46 4.75 0.3 13 22 1019.4 0 11.5 20.8 26.4 68.6 52.9 178.6
07/05 21:40 11.3 46 4.69 0.1 19 22 1019.5 0 11.4 20.8 26.3 68.2 52.4 176.6
07/05 21:30 11.3 46 4.69 0.1 11 28 1019.4 0 11.4 20.8 26.3 68.2 52.4 176.6
07/05 21:20 11.4 46 4.72 0.2 11 19 1019.3 0 11.4 20.8 26.3 68.3 52.6 177.6
07/05 21:10 11.4 46 4.72 0.2 11 17 1019.3 0 11.4 20.8 26.3 68.3 52.6 177.6
07/05 21:00 11.5 46 4.75 0.3 9 20 1019.1 0 11.5 20.8 26.4 68.5 52.9 178.5
07/05 20:50 11.7 43 4.5 -0.5 11 17 1018.9 0 11.0 20.4 25.5 66.0 49.9 167.8
07/05 20:40 11.8 44 4.63 -0.1 11 20 1018.9 0 11.2 20.6 25.9 67.1 51.3 172.9
07/05 20:30 12 43 4.58 -0.2 9 22 1018.9 0 11.1 20.4 25.6 66.5 50.6 170.5
07/05 20:20 12.1 42 4.5 -0.4 11 17 1018.9 0 10.9 20.3 25.3 65.7 49.6 167.0
07/05 20:10 12.2 41 4.42 -0.7 15 19 1018.9 0 10.8 20.2 25.0 64.8 48.6 163.6
07/05 20:00 12.3 41 4.45 -0.6 13 28 1018.7 0 10.8 20.2 25.1 65.0 48.9 164.6
07/05 19:50 12.4 40 4.37 -0.8 11 19 1018.6 0 10.7 20.1 24.8 64.2 47.9 161.1

Last Refresh: 08-May-2026 12:10:13

Bureau of Meteorology